createdAt,value
2023-01-07T00:01:43.994Z,-11.90
2023-01-07T00:04:15.567Z,-11.80
2023-01-07T00:06:45.581Z,-11.80
2023-01-07T00:09:16.747Z,-11.80
2023-01-07T00:11:46.148Z,-11.90
2023-01-07T00:14:16.231Z,-11.90
2023-01-07T00:16:45.065Z,-11.90
2023-01-07T00:19:17.027Z,-11.90
2023-01-07T00:21:45.679Z,-11.90
2023-01-07T00:24:14.788Z,-11.90
2023-01-07T00:26:43.925Z,-11.90
2023-01-07T00:29:13.012Z,-11.90
2023-01-07T00:31:42.206Z,-11.90
2023-01-07T00:34:11.484Z,-12.00
2023-01-07T00:36:44.289Z,-12.00
2023-01-07T00:39:15.789Z,-11.90
2023-01-07T00:42:06.725Z,-11.80
2023-01-07T00:44:37.995Z,-11.80
2023-01-07T00:47:06.795Z,-11.80
2023-01-07T00:49:35.399Z,-11.80
2023-01-07T00:52:05.679Z,-11.80
2023-01-07T00:54:34.405Z,-11.90
2023-01-07T00:57:02.972Z,-11.90
2023-01-07T00:59:31.596Z,-12.00
2023-01-07T01:02:00.502Z,-11.90
2023-01-07T01:04:29.239Z,-11.90
2023-01-07T01:06:58.894Z,-11.80
2023-01-07T01:09:41.049Z,-11.80
2023-01-07T01:12:14.673Z,-11.80
2023-01-07T01:14:43.373Z,-11.80
2023-01-07T01:17:12.070Z,-11.80
2023-01-07T01:19:40.765Z,-11.80
2023-01-07T01:22:09.895Z,-11.90
2023-01-07T01:24:40.412Z,-12.00
2023-01-07T01:27:10.396Z,-12.00
2023-01-07T01:29:39.322Z,-11.90
2023-01-07T01:32:08.209Z,-11.90
2023-01-07T01:34:37.103Z,-11.80
2023-01-07T01:37:05.966Z,-11.80
2023-01-07T01:39:34.558Z,-11.80
2023-01-07T01:42:04.801Z,-11.80
2023-01-07T01:44:52.071Z,-11.80
2023-01-07T01:47:37.118Z,-11.80
2023-01-07T01:50:13.460Z,-11.70
2023-01-07T01:52:48.710Z,-11.80
2023-01-07T01:55:25.395Z,-11.70
2023-01-07T01:58:01.417Z,-11.70
2023-01-07T02:00:31.207Z,-11.70
2023-01-07T02:03:01.003Z,-11.70
2023-01-07T02:05:31.155Z,-11.70
2023-01-07T02:07:59.801Z,-11.70
2023-01-07T02:10:31.309Z,-11.70
2023-01-07T02:13:26.727Z,-11.70
2023-01-07T02:16:01.113Z,-11.60
2023-01-07T02:18:51.952Z,-11.70
2023-01-07T02:21:36.508Z,-11.70
2023-01-07T02:24:33.335Z,-11.80
2023-01-07T02:27:16.651Z,-11.80
2023-01-07T02:30:33.332Z,-11.70
2023-01-07T02:33:36.461Z,-11.70
2023-01-07T02:36:31.322Z,-11.70
2023-01-07T02:39:23.812Z,-11.70
2023-01-07T02:41:58.756Z,-11.70
2023-01-07T02:44:36.703Z,-11.70
2023-01-07T02:47:11.056Z,-11.80
2023-01-07T02:49:41.192Z,-11.80
2023-01-07T02:52:19.377Z,-11.80
2023-01-07T02:54:52.949Z,-11.80
2023-01-07T02:57:41.865Z,-11.70
2023-01-07T03:00:20.532Z,-11.70
2023-01-07T03:03:09.873Z,-11.60
2023-01-07T03:05:49.148Z,-11.70
2023-01-07T03:08:43.748Z,-11.60
2023-01-07T03:11:13.796Z,-11.60
2023-01-07T03:13:48.655Z,-11.70
2023-01-07T03:16:24.069Z,-11.80
2023-01-07T03:19:00.653Z,-11.80
2023-01-07T03:21:36.217Z,-11.80
2023-01-07T03:24:06.897Z,-11.80
2023-01-07T03:26:39.458Z,-11.90
2023-01-07T03:29:11.854Z,-11.80
2023-01-07T03:31:48.694Z,-11.80
2023-01-07T03:34:22.174Z,-11.80
2023-01-07T03:37:02.335Z,-11.80
2023-01-07T03:39:34.593Z,-11.80
2023-01-07T03:42:25.593Z,-11.80
2023-01-07T03:44:54.562Z,-11.80
2023-01-07T03:47:26.215Z,-11.80
2023-01-07T03:49:54.895Z,-11.90
2023-01-07T03:52:25.837Z,-11.80
2023-01-07T03:54:54.508Z,-11.80
2023-01-07T03:57:23.442Z,-11.70
2023-01-07T03:59:52.041Z,-11.70
2023-01-07T04:02:20.635Z,-11.70
2023-01-07T04:04:49.709Z,-11.70
2023-01-07T04:07:18.910Z,-11.70
2023-01-07T04:09:50.551Z,-11.70
2023-01-07T04:12:19.865Z,-11.70
2023-01-07T04:14:48.613Z,-11.70
2023-01-07T04:17:17.222Z,-11.60
2023-01-07T04:19:45.906Z,-11.60
2023-01-07T04:22:14.633Z,-11.60
2023-01-07T04:24:44.222Z,-11.60
2023-01-07T04:27:16.568Z,-11.60
2023-01-07T04:29:45.542Z,-11.60
2023-01-07T04:32:14.124Z,-11.60
2023-01-07T04:34:43.569Z,-11.50
2023-01-07T04:37:12.218Z,-11.50
2023-01-07T04:39:40.881Z,-11.50
2023-01-07T04:42:09.518Z,-11.60
2023-01-07T04:44:39.489Z,-11.60
2023-01-07T04:47:08.254Z,-11.60
2023-01-07T04:49:36.931Z,-11.60
2023-01-07T04:52:06.228Z,-11.60
2023-01-07T04:54:36.781Z,-11.60
2023-01-07T04:57:05.557Z,-11.70
2023-01-07T04:59:34.183Z,-11.70
2023-01-07T05:02:05.710Z,-11.70
2023-01-07T05:04:34.478Z,-11.70
2023-01-07T05:07:03.545Z,-11.60
2023-01-07T05:09:32.243Z,-11.70
2023-01-07T05:12:01.644Z,-11.70
2023-01-07T05:14:31.361Z,-11.60
2023-01-07T05:17:00.030Z,-11.50
2023-01-07T05:19:32.236Z,-11.50
2023-01-07T05:22:01.253Z,-11.60
2023-01-07T05:24:30.258Z,-11.60
2023-01-07T05:26:59.256Z,-11.60
2023-01-07T05:29:28.557Z,-11.60
2023-01-07T05:31:58.166Z,-11.60
2023-01-07T05:34:27.413Z,-11.60
2023-01-07T05:36:58.932Z,-11.50
2023-01-07T05:39:27.874Z,-11.50
2023-01-07T05:41:56.555Z,-11.50
2023-01-07T05:44:26.698Z,-11.60
2023-01-07T05:46:55.370Z,-11.50
2023-01-07T05:49:23.955Z,-11.50
2023-01-07T05:51:52.629Z,-11.50
2023-01-07T05:54:22.655Z,-11.50
2023-01-07T05:56:51.199Z,-11.50
2023-01-07T05:59:19.957Z,-11.50
2023-01-07T06:01:48.558Z,-11.50
2023-01-07T06:04:17.167Z,-11.50
2023-01-07T06:06:45.730Z,-11.50
2023-01-07T06:09:14.459Z,-11.40
2023-01-07T06:11:45.226Z,-11.40
2023-01-07T06:14:13.827Z,-11.40
2023-01-07T06:16:42.519Z,-11.40
2023-01-07T06:19:12.450Z,-11.40
2023-01-07T06:21:41.112Z,-11.40
2023-01-07T06:24:10.104Z,-11.40
2023-01-07T06:26:38.701Z,-11.40
2023-01-07T06:29:08.692Z,-11.40
2023-01-07T06:31:37.362Z,-11.40
2023-01-07T06:34:05.994Z,-11.40
2023-01-07T06:36:34.683Z,-11.40
2023-01-07T06:39:03.263Z,-11.30
2023-01-07T06:41:31.894Z,-11.30
2023-01-07T06:44:00.513Z,-11.30
2023-01-07T06:46:30.837Z,-11.30
2023-01-07T06:48:59.504Z,-11.30
2023-01-07T06:51:28.095Z,-11.30
2023-01-07T06:53:56.797Z,-11.30
2023-01-07T06:56:25.381Z,-11.30
2023-01-07T06:58:54.049Z,-11.40
2023-01-07T07:01:22.846Z,-11.40
2023-01-07T07:03:52.946Z,-11.30
2023-01-07T07:06:21.702Z,-11.30
2023-01-07T07:08:50.301Z,-11.30
2023-01-07T07:11:18.977Z,-11.30
2023-01-07T07:13:47.567Z,-11.30
2023-01-07T07:16:16.292Z,-11.20
2023-01-07T07:18:44.934Z,-11.20
2023-01-07T07:21:14.921Z,-11.20
2023-01-07T07:23:43.527Z,-11.20
2023-01-07T07:26:12.137Z,-11.10
2023-01-07T07:28:42.912Z,-11.10
2023-01-07T07:31:11.888Z,-11.20
2023-01-07T07:33:40.554Z,-11.20
2023-01-07T07:36:09.790Z,-11.20
2023-01-07T07:38:39.771Z,-11.20
2023-01-07T07:41:08.436Z,-11.20
2023-01-07T07:43:37.373Z,-11.10
2023-01-07T07:46:06.363Z,-11.10
2023-01-07T07:48:35.002Z,-11.10
2023-01-07T07:51:05.207Z,-11.10
2023-01-07T07:53:33.905Z,-11.10
2023-01-07T07:56:06.229Z,-11.20
2023-01-07T07:58:34.924Z,-11.20
2023-01-07T08:01:03.693Z,-11.10
2023-01-07T08:03:32.695Z,-11.10
2023-01-07T08:06:01.454Z,-11.10
2023-01-07T08:08:30.248Z,-11.10
2023-01-07T08:10:58.896Z,-11.10
2023-01-07T08:13:28.866Z,-11.00
2023-01-07T08:15:57.518Z,-11.00
2023-01-07T08:18:26.194Z,-10.90
2023-01-07T08:20:55.856Z,-10.90
2023-01-07T08:23:24.524Z,-10.90
2023-01-07T08:25:53.160Z,-10.90
2023-01-07T08:28:21.809Z,-10.90
2023-01-07T08:30:51.802Z,-10.80
2023-01-07T08:33:20.418Z,-10.80
2023-01-07T08:35:49.019Z,-10.80
2023-01-07T08:38:17.615Z,-10.70
2023-01-07T08:40:46.248Z,-10.80
2023-01-07T08:43:14.831Z,-10.70
2023-01-07T08:45:49.278Z,-10.70
2023-01-07T08:48:19.532Z,-10.70
2023-01-07T08:50:52.051Z,-10.70
2023-01-07T08:53:20.709Z,-10.70
2023-01-07T08:55:49.403Z,-10.60
2023-01-07T08:58:18.027Z,-10.60
2023-01-07T09:00:46.739Z,-10.60
2023-01-07T09:03:15.377Z,-10.50
2023-01-07T09:05:45.438Z,-10.50
2023-01-07T09:08:14.045Z,-10.50
2023-01-07T09:10:42.727Z,-10.50
2023-01-07T09:13:11.341Z,-10.50
2023-01-07T09:15:39.968Z,-10.50
2023-01-07T09:18:08.544Z,-10.50
2023-01-07T09:20:37.151Z,-10.50
2023-01-07T09:23:07.201Z,-10.30
2023-01-07T09:25:35.963Z,-10.40
2023-01-07T09:28:04.638Z,-10.30
2023-01-07T09:30:33.273Z,-10.30
2023-01-07T09:33:01.878Z,-10.20
2023-01-07T09:35:30.725Z,-10.20
2023-01-07T09:37:59.339Z,-10.20
2023-01-07T09:40:33.111Z,-10.30
2023-01-07T09:43:09.086Z,-10.20
2023-01-07T09:45:41.435Z,-10.10
2023-01-07T09:48:19.162Z,-10.20
2023-01-07T09:50:54.275Z,-10.10
2023-01-07T09:53:27.417Z,-10.10
2023-01-07T09:56:11.791Z,-10.10
2023-01-07T09:58:43.699Z,-10.10
2023-01-07T10:01:24.418Z,-10.10
2023-01-07T10:04:01.616Z,-10.10
2023-01-07T10:06:43.537Z,-10.00
2023-01-07T10:09:22.553Z,-10.10
2023-01-07T10:12:00.635Z,-10.10
2023-01-07T10:14:44.840Z,-10.00
2023-01-07T10:17:24.329Z,-10.00
2023-01-07T10:19:59.021Z,-9.90
2023-01-07T10:22:33.683Z,-9.80
2023-01-07T10:25:04.979Z,-9.70
2023-01-07T10:27:38.990Z,-9.70
2023-01-07T10:30:13.923Z,-9.70
2023-01-07T10:32:43.608Z,-9.80
2023-01-07T10:35:19.306Z,-9.70
2023-01-07T10:37:48.045Z,-9.70
2023-01-07T10:40:39.718Z,-9.70
2023-01-07T10:43:23.974Z,-9.70
2023-01-07T10:46:11.256Z,-9.70
2023-01-07T10:49:24.725Z,-9.70
2023-01-07T10:52:10.915Z,-9.70
2023-01-07T10:55:06.373Z,-9.70
2023-01-07T10:57:37.737Z,-9.60
2023-01-07T11:00:14.528Z,-9.50
2023-01-07T11:02:47.724Z,-9.50
2023-01-07T11:05:18.465Z,-9.50
2023-01-07T11:07:49.814Z,-9.50
2023-01-07T11:10:21.931Z,-9.50
2023-01-07T11:12:53.988Z,-9.50
2023-01-07T11:15:27.256Z,-9.40
2023-01-07T11:17:59.461Z,-9.30
2023-01-07T11:20:48.597Z,-9.30
2023-01-07T11:23:35.042Z,-9.30
2023-01-07T11:26:14.261Z,-9.30
2023-01-07T11:28:50.108Z,-9.30
2023-01-07T11:31:20.984Z,-9.30
2023-01-07T11:34:02.799Z,-9.40
2023-01-07T11:36:43.427Z,-9.50
2023-01-07T11:39:18.596Z,-9.50
2023-01-07T11:41:54.952Z,-9.50
2023-01-07T11:44:23.921Z,-9.40
2023-01-07T11:46:54.941Z,-9.30
2023-01-07T11:49:29.990Z,-9.30
2023-01-07T11:51:58.756Z,-9.30
2023-01-07T11:54:29.221Z,-9.30
2023-01-07T11:57:13.486Z,-9.30
2023-01-07T11:59:42.089Z,-9.30
2023-01-07T12:02:25.896Z,-9.30
2023-01-07T12:05:14.601Z,-9.30
2023-01-07T12:07:48.545Z,-9.30
2023-01-07T12:10:30.244Z,-9.30
2023-01-07T12:13:00.552Z,-9.30
2023-01-07T12:15:32.034Z,-9.30
2023-01-07T12:18:16.432Z,-9.40
2023-01-07T12:21:18.724Z,-9.40
2023-01-07T12:24:01.649Z,-9.40
2023-01-07T12:26:38.774Z,-9.40
2023-01-07T12:29:16.478Z,-9.50
2023-01-07T12:32:01.594Z,-9.50
2023-01-07T12:34:43.517Z,-9.50
2023-01-07T12:37:20.696Z,-9.40
2023-01-07T12:39:57.495Z,-9.40
2023-01-07T12:42:30.271Z,-9.40
2023-01-07T12:45:05.273Z,-9.40
2023-01-07T12:47:37.752Z,-9.40
2023-01-07T12:50:13.499Z,-9.50
2023-01-07T12:52:48.382Z,-9.50
2023-01-07T12:55:22.988Z,-9.50
2023-01-07T12:58:01.449Z,-9.50
2023-01-07T13:00:33.707Z,-9.50
2023-01-07T13:03:11.663Z,-9.50
2023-01-07T13:05:49.407Z,-9.50
2023-01-07T13:08:29.835Z,-9.50
2023-01-07T13:11:04.111Z,-9.50
2023-01-07T13:13:37.800Z,-9.50
2023-01-07T13:16:07.296Z,-9.50
2023-01-07T13:18:36.106Z,-9.60
2023-01-07T13:21:08.805Z,-9.50
2023-01-07T13:24:02.965Z,-9.50
2023-01-07T13:26:45.233Z,-9.50
2023-01-07T13:29:28.901Z,-9.50
2023-01-07T13:32:26.005Z,-9.50
2023-01-07T13:35:06.334Z,-9.40
2023-01-07T13:37:49.476Z,-9.50
2023-01-07T13:40:38.409Z,-9.40
2023-01-07T13:43:19.555Z,-9.40
2023-01-07T13:45:54.429Z,-9.40
2023-01-07T13:48:25.505Z,-9.30
2023-01-07T13:50:59.953Z,-9.40
2023-01-07T13:53:46.412Z,-9.40
2023-01-07T13:56:36.128Z,-9.40
2023-01-07T13:59:31.115Z,-9.30
2023-01-07T14:02:19.318Z,-9.30
2023-01-07T14:04:53.061Z,-9.30
2023-01-07T14:07:21.970Z,-9.30
2023-01-07T14:09:50.730Z,-9.30
2023-01-07T14:12:41.609Z,-9.30
2023-01-07T14:15:34.390Z,-9.30
2023-01-07T14:18:40.130Z,-9.20
2023-01-07T14:21:22.361Z,-9.20
2023-01-07T14:24:06.822Z,-9.20
2023-01-07T14:26:42.509Z,-9.20
2023-01-07T14:29:36.267Z,-9.20
2023-01-07T14:32:29.897Z,-9.20
2023-01-07T14:35:01.849Z,-9.20
2023-01-07T14:37:33.428Z,-9.20
2023-01-07T14:40:03.451Z,-9.10
2023-01-07T14:42:49.652Z,-9.10
2023-01-07T14:45:56.434Z,-9.20
2023-01-07T14:48:37.467Z,-9.20
2023-01-07T14:51:33.118Z,-9.20
2023-01-07T14:54:48.389Z,-9.10
2023-01-07T14:57:28.181Z,-9.20
2023-01-07T15:00:23.916Z,-9.20
2023-01-07T15:03:22.511Z,-9.20
2023-01-07T15:06:04.267Z,-9.10
2023-01-07T15:09:02.394Z,-9.20
2023-01-07T15:11:49.319Z,-9.10
2023-01-07T15:14:49.508Z,-9.10
2023-01-07T15:17:18.531Z,-9.10
2023-01-07T15:19:47.573Z,-9.10
2023-01-07T15:22:43.005Z,-9.00
2023-01-07T15:25:27.203Z,-9.00
2023-01-07T15:28:02.484Z,-9.00
2023-01-07T15:30:43.276Z,-9.00
2023-01-07T15:33:42.678Z,-9.00
2023-01-07T15:36:15.772Z,-9.00
2023-01-07T15:38:50.617Z,-8.90
2023-01-07T15:41:27.591Z,-8.90
2023-01-07T15:43:57.303Z,-8.90
2023-01-07T15:46:28.106Z,-8.90
2023-01-07T15:49:07.638Z,-8.90
2023-01-07T15:51:40.095Z,-8.90
2023-01-07T15:54:24.821Z,-8.80
2023-01-07T15:56:55.548Z,-8.80
2023-01-07T15:59:29.139Z,-8.80
2023-01-07T16:02:06.663Z,-8.80
2023-01-07T16:04:38.790Z,-8.80
2023-01-07T16:07:07.514Z,-8.80
2023-01-07T16:09:37.718Z,-8.80
2023-01-07T16:12:21.407Z,-8.90
2023-01-07T16:14:50.040Z,-8.80
2023-01-07T16:17:19.814Z,-8.80
2023-01-07T16:20:11.410Z,-8.80
2023-01-07T16:22:42.022Z,-8.80
2023-01-07T16:25:22.068Z,-8.80
2023-01-07T16:27:51.838Z,-8.80
2023-01-07T16:30:20.785Z,-8.80
2023-01-07T16:32:50.109Z,-8.80
2023-01-07T16:35:21.731Z,-8.80
2023-01-07T16:37:53.951Z,-8.80
2023-01-07T16:40:29.227Z,-8.70
2023-01-07T16:42:57.922Z,-8.70
2023-01-07T16:45:30.062Z,-8.80
2023-01-07T16:48:04.384Z,-8.80
2023-01-07T16:50:43.607Z,-8.80
2023-01-07T16:53:27.922Z,-8.70
2023-01-07T16:56:12.982Z,-8.80
2023-01-07T16:58:48.847Z,-8.80
2023-01-07T17:01:21.027Z,-8.80
2023-01-07T17:03:54.731Z,-8.80
2023-01-07T17:06:26.703Z,-8.80
2023-01-07T17:08:57.246Z,-8.80
2023-01-07T17:11:34.339Z,-8.70
2023-01-07T17:14:03.069Z,-8.70
2023-01-07T17:16:33.509Z,-8.80
2023-01-07T17:19:24.603Z,-8.70
2023-01-07T17:21:53.739Z,-8.70
2023-01-07T17:24:47.496Z,-8.70
2023-01-07T17:27:26.359Z,-8.70
2023-01-07T17:29:55.595Z,-8.60
2023-01-07T17:32:25.348Z,-8.60
2023-01-07T17:34:53.998Z,-8.60
2023-01-07T17:37:22.723Z,-8.60
2023-01-07T17:39:51.591Z,-8.60
2023-01-07T17:42:45.644Z,-8.60
2023-01-07T17:45:19.273Z,-8.60
2023-01-07T17:47:49.801Z,-8.60
2023-01-07T17:50:19.924Z,-8.60
2023-01-07T17:52:53.469Z,-8.60
2023-01-07T17:55:25.749Z,-8.60
2023-01-07T17:57:56.072Z,-8.70
2023-01-07T18:00:26.910Z,-8.70
2023-01-07T18:02:55.991Z,-8.60
2023-01-07T18:05:26.884Z,-8.60
2023-01-07T18:07:55.819Z,-8.60
2023-01-07T18:10:29.204Z,-8.50
2023-01-07T18:12:58.949Z,-8.60
2023-01-07T18:15:28.386Z,-8.60
2023-01-07T18:17:57.009Z,-8.60
2023-01-07T18:20:25.729Z,-8.60
2023-01-07T18:22:55.353Z,-8.50
2023-01-07T18:25:24.386Z,-8.50
2023-01-07T18:27:53.874Z,-8.50
2023-01-07T18:30:24.453Z,-8.50
2023-01-07T18:32:53.965Z,-8.50
2023-01-07T18:35:23.777Z,-8.50
2023-01-07T18:37:52.817Z,-8.50
2023-01-07T18:40:22.016Z,-8.50
2023-01-07T18:42:50.727Z,-8.50
2023-01-07T18:45:19.430Z,-8.50
2023-01-07T18:47:50.812Z,-8.50
2023-01-07T18:50:19.705Z,-8.50
2023-01-07T18:52:48.316Z,-8.50
2023-01-07T18:55:19.450Z,-8.50
2023-01-07T18:57:48.143Z,-8.40
2023-01-07T19:00:17.831Z,-8.40
2023-01-07T19:02:46.657Z,-8.30
2023-01-07T19:05:18.028Z,-8.30
2023-01-07T19:07:46.870Z,-8.30
2023-01-07T19:10:16.725Z,-8.40
2023-01-07T19:12:45.119Z,-8.30
2023-01-07T19:15:13.726Z,-8.40
2023-01-07T19:17:42.393Z,-8.30
2023-01-07T19:20:12.647Z,-8.40
2023-01-07T19:22:42.728Z,-8.40
2023-01-07T19:25:11.963Z,-8.40
2023-01-07T19:27:40.622Z,-8.40
2023-01-07T19:30:10.796Z,-8.40
2023-01-07T19:32:41.643Z,-8.40
2023-01-07T19:35:11.178Z,-8.40
2023-01-07T19:37:41.418Z,-8.40
2023-01-07T19:40:12.499Z,-8.30
2023-01-07T19:42:41.161Z,-8.30
2023-01-07T19:45:10.906Z,-8.30
2023-01-07T19:47:39.573Z,-8.30
2023-01-07T19:50:10.071Z,-8.20
2023-01-07T19:52:38.733Z,-8.20
2023-01-07T19:55:09.586Z,-8.20
2023-01-07T19:57:38.343Z,-8.30
2023-01-07T20:00:09.215Z,-8.30
2023-01-07T20:02:37.968Z,-8.30
2023-01-07T20:05:07.461Z,-8.30
2023-01-07T20:07:36.127Z,-8.30
2023-01-07T20:10:05.218Z,-8.20
2023-01-07T20:12:35.349Z,-8.20
2023-01-07T20:15:04.046Z,-8.30
2023-01-07T20:17:33.350Z,-8.20
2023-01-07T20:20:02.060Z,-8.20
2023-01-07T20:22:30.988Z,-8.20
2023-01-07T20:25:00.134Z,-8.20
2023-01-07T20:27:28.878Z,-8.20
2023-01-07T20:29:59.563Z,-8.10
2023-01-07T20:32:28.289Z,-8.10
2023-01-07T20:34:57.126Z,-8.00
2023-01-07T20:37:28.152Z,-8.00
2023-01-07T20:39:57.080Z,-8.00
2023-01-07T20:42:26.981Z,-8.00
2023-01-07T20:44:55.959Z,-7.90
2023-01-07T20:47:28.639Z,-7.90
2023-01-07T20:49:57.418Z,-8.00
2023-01-07T20:52:26.054Z,-8.00
2023-01-07T20:54:54.786Z,-7.90
2023-01-07T20:57:23.890Z,-8.00
2023-01-07T20:59:52.620Z,-8.00
2023-01-07T21:02:22.302Z,-8.00
2023-01-07T21:04:52.567Z,-8.00
2023-01-07T21:07:23.400Z,-8.00
2023-01-07T21:09:52.298Z,-8.00
2023-01-07T21:12:21.097Z,-8.00
2023-01-07T21:14:49.718Z,-8.00
2023-01-07T21:17:18.466Z,-7.90
2023-01-07T21:19:47.211Z,-7.90
2023-01-07T21:22:17.650Z,-7.90
2023-01-07T21:24:46.443Z,-7.80
2023-01-07T21:27:15.113Z,-7.80
2023-01-07T21:29:43.836Z,-7.80
2023-01-07T21:32:12.782Z,-7.80
2023-01-07T21:34:41.404Z,-7.80
2023-01-07T21:37:10.055Z,-7.80
2023-01-07T21:39:41.282Z,-7.80
2023-01-07T21:42:10.091Z,-7.80
2023-01-07T21:44:38.979Z,-7.80
2023-01-07T21:47:07.767Z,-7.90
2023-01-07T21:49:36.385Z,-7.80
2023-01-07T21:52:04.964Z,-7.80
2023-01-07T21:54:34.525Z,-7.80
2023-01-07T21:57:04.666Z,-7.80
2023-01-07T21:59:33.294Z,-7.80
2023-01-07T22:02:02.117Z,-7.70
2023-01-07T22:04:31.047Z,-7.80
2023-01-07T22:06:59.726Z,-7.80
2023-01-07T22:09:28.312Z,-7.80
2023-01-07T22:11:56.924Z,-7.70
2023-01-07T22:14:27.580Z,-7.70
2023-01-07T22:16:56.169Z,-7.70
2023-01-07T22:19:26.044Z,-7.80
2023-01-07T22:21:54.418Z,-7.80
2023-01-07T22:24:23.024Z,-7.80
2023-01-07T22:26:52.834Z,-7.80
2023-01-07T22:29:21.487Z,-7.80
2023-01-07T22:31:53.000Z,-7.70
2023-01-07T22:34:21.772Z,-7.80
2023-01-07T22:36:55.445Z,-7.80
2023-01-07T22:39:29.840Z,-7.70
2023-01-07T22:42:02.168Z,-7.70
2023-01-07T22:44:36.752Z,-7.70
2023-01-07T22:47:10.066Z,-7.70
2023-01-07T22:49:41.794Z,-7.70
2023-01-07T22:52:11.732Z,-7.70
2023-01-07T22:54:40.466Z,-7.70
2023-01-07T22:57:12.210Z,-7.70
2023-01-07T22:59:40.873Z,-7.70
2023-01-07T23:02:11.343Z,-7.60
2023-01-07T23:04:39.965Z,-7.70
2023-01-07T23:07:08.566Z,-7.60
2023-01-07T23:09:37.258Z,-7.60
2023-01-07T23:12:06.063Z,-7.60
2023-01-07T23:14:34.649Z,-7.50
2023-01-07T23:17:03.274Z,-7.60
2023-01-07T23:19:33.516Z,-7.50
2023-01-07T23:22:02.103Z,-7.60
2023-01-07T23:24:30.797Z,-7.60
2023-01-07T23:26:59.505Z,-7.50
2023-01-07T23:29:28.389Z,-7.50
2023-01-07T23:31:57.047Z,-7.50
2023-01-07T23:34:25.790Z,-7.50
2023-01-07T23:36:55.757Z,-7.50
2023-01-07T23:39:24.055Z,-7.50
2023-01-07T23:41:52.693Z,-7.50
2023-01-07T23:44:21.296Z,-7.50
2023-01-07T23:46:49.965Z,-7.40
2023-01-07T23:49:18.564Z,-7.40
2023-01-07T23:51:47.153Z,-7.50
2023-01-07T23:54:17.264Z,-7.50
2023-01-07T23:56:45.934Z,-7.50
2023-01-07T23:59:14.498Z,-7.50
